Palmdale, CA (93590)

4:49 AM PST on December 05, 2016 (GMT -0800)
Palmdale near Sierra Hwy and Rancho Vista blvd | | Change Station

Elev 2621 ft 34.60 °N, 118.12 °W | Updated 20 seconds ago

Clear
Clear
57.6 °F
Feels Like 57.6 °F
N
0.9
Wind Variable Wind from West
Gusts 2.5 mph

Today
High -- | Low -- °F
--% Chance of Precip.
Yesterday
High -- | Low -- °F
Precip. -- in
Pressure 29.96 in
Visibility 10.0 miles
Clouds Clear
Dew Point 19 °F
Humidity 22%
Rainfall in
Snow Depth Not available.
6:45 AM 4:41 PM
Waxing Crescent, 31% visible
METAR KWJF 051156Z 27018KT 10SM CLR 09/M03 A2997 RMK AO2 SLP143 T00941028 10139 20094 58005
Pressure 29.96 in
Visibility 10.0 miles
Clouds Clear
Dew Point 19 °F
Humidity 22%
Rainfall in
Snow Depth Not available.
6:45 AM 4:41 PM
Waxing Crescent, 31% visible
METAR KWJF 051156Z 27018KT 10SM CLR 09/M03 A2997 RMK AO2 SLP143 T00941028 10139 20094 58005

10-Day Weather Forecast

Almanac

Astronomy

Dec. 05, 2016 Rise Set
Actual Time
Civil Twilight
Nautical Twilight
Astronomical Twilight
Moon
Length of Visible Light
Length of Day
Tomorrow will be .
, % of the Moon is Illuminated

Today's Extremes

State Highs State Lows

Community

WunderPhotos

Upload Photos

1,955,778 photos uploaded!

WunderBlog® & News

Nearby

Air Quality

  Air Quality AQ Index Pollutant
Not available.

Snow Depth

Station Depth Elevation

Earthquake Activity

City Distance Mag. Time & Date
Minimum magnitude displayed is 2.5.

Coastal Water Temperatures

Place Temperature

Stations

Nearby Weather Stations

Station Location Temp. Windchill Dew Point Humidity Wind Precip. Elev Updated Type
                   

Watches & Warnings

There are currently no watches in effect.